Conway, NH (03818)

6:36 PM EST on February 11, 2016 (GMT -0500)
101 Pollard St | | Change Station
CLOSE
Current Station
Personal Weather Station
Location: Conway, NH
Elevation: 489 ft
Nearby Weather Stations
Active Advisory: Wind Chill Watch

Elev 489 ft 43.98 °N, 71.11 °W | Updated 4 seconds ago

Partly Cloudy
Partly Cloudy
13.3 °F
Feels Like 3 °F
N
6.9
Wind Variable Wind from WNW
Gusts 6.9 mph

Today
High -- | Low -- °F
--% Chance of Precip.
Yesterday
High -- | Low -- °F
Precip. -- in
Pressure 29.78 in
Visibility 10.0 miles
Clouds Overcast 8500 ft
Windchill 3 °F
Dew Point -1 °F
Humidity 52%
Rainfall 0.12 in
Snow Depth Not available.
6:50 AM 5:08 PM
Waxing Crescent, 15% visible
METAR KIZG 112254Z AUTO 29007KT 230V320 10SM OVC085 M08/M19 A2975 RMK AO2 SLP082 T10831189
Pressure 29.78 in
Visibility 10.0 miles
Clouds Overcast 8500 ft
Windchill 3 °F
Dew Point -1 °F
Humidity 52%
Rainfall 0.12 in
Snow Depth Not available.
6:50 AM 5:08 PM
Waxing Crescent, 15% visible
METAR KIZG 112254Z AUTO 29007KT 230V320 10SM OVC085 M08/M19 A2975 RMK AO2 SLP082 T10831189

10-Day Weather Forecast

Almanac

Astronomy

Feb. 11, 2016 Rise Set
Actual Time
Civil Twilight
Nautical Twilight
Astronomical Twilight
Moon
Length of Visible Light
Length of Day
Tomorrow will be .
, % of the Moon is Illuminated

Today's Extremes

State Highs State Lows

Community

WunderPhotos

Upload Photos

1,892,181 photos uploaded!

WunderBlog® & News

Nearby

Air Quality

  Air Quality AQ Index Pollutant
Not available.

Snow Depth

Station Depth Elevation

Earthquake Activity

City Distance Mag. Time & Date
Minimum magnitude displayed is 2.5.

Coastal Water Temperatures

Place Temperature

Stations

Nearby Weather Stations

Station Location Temp. Windchill Dew Point Humidity Wind Precip. Elev Updated Type
                   

Watches & Warnings

Wind Chill Watch
Issued: 6:03 PM EST Feb. 11, 2016 – National Weather Service

... Wind chill watch in effect from Saturday evening through
Sunday morning...

The National Weather Service in gray has issued a wind chill
watch... which is in effect from Saturday evening through Sunday
morning.

* Hazard types... dangerous wind chill readings.

* Wind chill... as low as 36 below due to temperatures 13 below
to zero... and winds northwest 10 to 20 mph with gusts up to 30
mph.

* Timing... Saturday night and Sunday morning.

* Impacts... frostbite and hypothermia if unprotected from the
cold.

* Winds... northwest 10 to 20 mph with gusts up to 30 mph.

* Temperatures... 13 below to zero.

Precautionary/preparedness actions...

A wind chill watch means the there is the potential for a
combination of very cold air and strong winds to create
dangerously low wind chill values. Monitor the latest forecasts
and warnings for updates on this situation.